createdAt,value
2023-05-01T00:04:28.898Z,62.6
2023-05-01T00:10:22.394Z,63.2
2023-05-01T00:16:13.824Z,64.4
2023-05-01T00:22:05.439Z,65.7
2023-05-01T00:27:56.963Z,66.8
2023-05-01T00:33:48.472Z,68.4
2023-05-01T00:39:40.553Z,69.6
2023-05-01T00:45:35.004Z,71.1
2023-05-01T00:51:27.188Z,74.3
2023-05-01T00:57:18.876Z,74.9
2023-05-01T01:03:10.784Z,76.9
2023-05-01T01:09:02.370Z,76
2023-05-01T01:14:54.217Z,77.5
2023-05-01T01:20:48.358Z,77.9
2023-05-01T01:26:40.161Z,78
2023-05-01T01:32:33.892Z,78.3
2023-05-01T01:38:28.027Z,78.4
2023-05-01T01:44:19.618Z,79.5
2023-05-01T01:50:10.502Z,79
2023-05-01T01:56:04.765Z,78.8
2023-05-01T02:01:56.930Z,78.3
2023-05-01T02:07:50.461Z,78.6
2023-05-01T02:13:44.468Z,80.9
2023-05-01T02:19:37.312Z,80.6
2023-05-01T02:25:31.339Z,81
2023-05-01T02:31:23.599Z,82.2
2023-05-01T02:37:16.257Z,82.1
2023-05-01T02:43:08.737Z,82.2
2023-05-01T02:49:00.458Z,83
2023-05-01T02:54:54.709Z,83.5
2023-05-01T03:00:47.590Z,84.2
2023-05-01T03:06:39.326Z,84.2
2023-05-01T03:12:31.574Z,85.3
2023-05-01T03:18:23.785Z,86.8
2023-05-01T03:24:14.787Z,87.7
2023-05-01T03:30:06.919Z,87.5
2023-05-01T03:36:00.879Z,88.4
2023-05-01T03:41:52.930Z,88.5
2023-05-01T03:47:46.953Z,86.9
2023-05-01T03:53:40.125Z,87
2023-05-01T03:59:31.772Z,85.2
2023-05-01T04:05:23.366Z,84.6
2023-05-01T04:11:14.630Z,85.1
2023-05-01T04:17:06.437Z,84.6
2023-05-01T04:22:58.388Z,84
2023-05-01T04:28:50.261Z,82.9
2023-05-01T04:34:41.473Z,78.9
2023-05-01T04:40:34.450Z,76.5
2023-05-01T04:46:26.406Z,75.9
2023-05-01T04:52:18.485Z,75.1
2023-05-01T04:58:09.935Z,74.1
2023-05-01T05:04:03.304Z,74.6
2023-05-01T05:09:55.307Z,74.4
2023-05-01T05:15:47.761Z,74.2
2023-05-01T05:21:39.811Z,74.2
2023-05-01T05:27:32.117Z,73.8
2023-05-01T05:33:24.501Z,73.7
2023-05-01T05:39:23.459Z,72.6
2023-05-01T05:45:15.760Z,73
2023-05-01T05:51:06.584Z,73.1
2023-05-01T05:56:59.158Z,73.2
2023-05-01T06:02:51.757Z,73.2
2023-05-01T06:08:44.457Z,72.8
2023-05-01T06:14:37.279Z,73
2023-05-01T06:20:29.321Z,72.7
2023-05-01T06:26:21.352Z,72.5
2023-05-01T06:32:14.237Z,72.5
2023-05-01T06:38:06.793Z,72.5
2023-05-01T06:43:59.696Z,73.1
2023-05-01T06:49:51.447Z,72.5
2023-05-01T06:55:44.055Z,72.4
2023-05-01T07:01:37.640Z,72
2023-05-01T07:07:29.657Z,71.7
2023-05-01T07:13:21.613Z,71.6
2023-05-01T07:19:13.784Z,71.4
2023-05-01T07:25:06.038Z,70.8
2023-05-01T07:30:58.785Z,71.4
2023-05-01T07:36:51.725Z,70.2
2023-05-01T07:42:43.882Z,69.9
2023-05-01T07:48:40.529Z,69.4
2023-05-01T07:54:33.028Z,69.3
2023-05-01T08:00:26.407Z,69.1
2023-05-01T08:06:18.449Z,68.3
2023-05-01T08:12:10.197Z,68.2
2023-05-01T08:18:02.375Z,67.5
2023-05-01T08:23:54.569Z,67.5
2023-05-01T08:29:46.287Z,66.6
2023-05-01T08:35:39.311Z,65.4
2023-05-01T08:41:32.040Z,62.7
2023-05-01T08:47:23.958Z,63.9
2023-05-01T08:53:15.640Z,62.5
2023-05-01T08:59:09.234Z,63.1
2023-05-01T09:05:01.344Z,63.1
2023-05-01T09:12:03.104Z,60.6
2023-05-01T09:17:55.930Z,60.2
2023-05-01T09:23:58.186Z,60.1
2023-05-01T09:29:55.206Z,59.1
2023-05-01T09:35:48.216Z,58.6
2023-05-01T09:41:41.856Z,56.3
2023-05-01T09:47:35.053Z,57.5
2023-05-01T09:53:28.111Z,56.9
2023-05-01T09:59:20.623Z,57.3
2023-05-01T10:05:13.157Z,56.1
2023-05-01T10:11:05.545Z,55.6
2023-05-01T10:16:58.854Z,56.1
2023-05-01T10:22:52.725Z,56.1
2023-05-01T10:28:45.251Z,53.9
2023-05-01T10:34:37.698Z,54.5
2023-05-01T10:40:30.837Z,54.3
2023-05-01T10:46:22.952Z,52.2
2023-05-01T10:52:15.776Z,53.9
2023-05-01T10:58:08.542Z,52.5
2023-05-01T11:04:01.676Z,51.1
2023-05-01T11:09:53.734Z,52.5
2023-05-01T11:15:46.001Z,52.5
2023-05-01T11:21:38.618Z,51.3
2023-05-01T11:27:30.332Z,51
2023-05-01T11:33:22.094Z,50.5
2023-05-01T11:39:15.614Z,49.9
2023-05-01T11:45:09.361Z,49.7
2023-05-01T11:51:00.963Z,50.3
2023-05-01T11:56:53.847Z,50.8
2023-05-01T12:02:45.528Z,52.1
2023-05-01T12:08:38.031Z,53.1
2023-05-01T12:14:29.920Z,53.5
2023-05-01T12:20:22.146Z,53.1
2023-05-01T12:26:15.035Z,53.7
2023-05-01T12:32:07.829Z,54.3
2023-05-01T12:38:00.491Z,54.8
2023-05-01T12:43:52.488Z,55
2023-05-01T12:49:42.300Z,55.5
2023-05-01T12:56:39.646Z,55.7
2023-05-01T13:02:28.587Z,55.5
2023-05-01T13:08:19.290Z,55.6
2023-05-01T13:14:15.909Z,56.6
2023-05-01T13:20:08.106Z,56.9
2023-05-01T13:27:08.097Z,57.2
2023-05-01T13:32:58.724Z,54.7
2023-05-01T13:38:49.462Z,52.7
2023-05-01T13:44:40.916Z,52.9
2023-05-01T13:50:32.348Z,54.2
2023-05-01T13:56:24.104Z,54.6
2023-05-01T14:02:15.708Z,54.3
2023-05-01T14:08:07.038Z,53.8
2023-05-01T14:14:00.650Z,54.3
2023-05-01T14:19:52.383Z,55.4
2023-05-01T14:25:45.200Z,55.6
2023-05-01T14:31:38.158Z,55.1
2023-05-01T14:37:29.395Z,55.2
2023-05-01T14:43:22.156Z,54.8
2023-05-01T14:49:13.521Z,56.7
2023-05-01T14:55:04.254Z,58.7
2023-05-01T15:00:56.042Z,60.7
2023-05-01T15:06:47.106Z,59.9
2023-05-01T15:12:38.403Z,60.7
2023-05-01T15:18:29.800Z,61.6
2023-05-01T15:24:22.780Z,61.5
2023-05-01T15:30:14.157Z,60.8
2023-05-01T15:36:06.020Z,60.8
2023-05-01T15:41:56.386Z,61.1
2023-05-01T15:47:47.088Z,65.2
2023-05-01T15:53:38.675Z,67.9
2023-05-01T15:59:30.934Z,66.3
2023-05-01T16:05:23.033Z,67.3
2023-05-01T16:11:14.931Z,67.1
2023-05-01T16:17:06.035Z,67.2
2023-05-01T16:22:59.090Z,67.5
2023-05-01T16:28:52.796Z,67.7
2023-05-01T16:34:49.998Z,68.1
2023-05-01T16:40:42.636Z,66.9
2023-05-01T16:46:36.537Z,67.2
2023-05-01T16:52:29.523Z,68.5
2023-05-01T16:58:23.162Z,69
2023-05-01T17:04:21.145Z,70.3
2023-05-01T17:10:15.231Z,71.9
2023-05-01T17:16:06.796Z,72
2023-05-01T17:21:58.081Z,73.8
2023-05-01T17:27:48.448Z,74.5
2023-05-01T17:33:39.773Z,74.8
2023-05-01T17:39:31.654Z,75.2
2023-05-01T17:45:22.805Z,75.8
2023-05-01T17:51:14.200Z,76.4
2023-05-01T17:57:06.081Z,77.1
2023-05-01T18:03:00.793Z,78.5
2023-05-01T18:08:52.582Z,78.7
2023-05-01T18:14:44.043Z,79.6
2023-05-01T18:20:35.759Z,79.4
2023-05-01T18:26:27.278Z,80.3
2023-05-01T18:32:30.296Z,81
2023-05-01T18:45:41.014Z,79.9
2023-05-01T18:51:28.525Z,82.3
2023-05-01T18:58:28.096Z,82.8
2023-05-01T19:04:19.023Z,83.9
2023-05-01T19:10:11.861Z,84.9
2023-05-01T19:16:03.360Z,84.3
2023-05-01T19:21:57.054Z,83.6
2023-05-01T19:27:47.951Z,83
2023-05-01T19:33:38.965Z,84.8
2023-05-01T19:39:30.706Z,84.9
2023-05-01T19:45:22.935Z,84.1
2023-05-01T19:52:25.796Z,84.6
2023-05-01T19:59:24.872Z,83.6
2023-05-01T20:06:24.339Z,84.1
2023-05-01T20:12:15.163Z,85.8
2023-05-01T20:19:16.131Z,88.5
2023-05-01T20:26:19.043Z,85.9
2023-05-01T20:39:03.182Z,86.8
2023-05-01T20:46:02.739Z,85.8
2023-05-01T20:51:53.302Z,87.6
2023-05-01T20:57:44.163Z,88
2023-05-01T21:03:38.271Z,88.8
2023-05-01T21:09:29.448Z,89
2023-05-01T21:15:21.716Z,90.5
2023-05-01T21:21:12.132Z,90.4
2023-05-01T21:27:02.887Z,88
2023-05-01T21:32:55.107Z,89.8
2023-05-01T21:38:46.829Z,89.7
2023-05-01T21:44:38.945Z,90.1
2023-05-01T21:50:31.104Z,90.8
2023-05-01T21:56:22.612Z,89.4
2023-05-01T22:02:14.957Z,91.4
2023-05-01T22:08:06.556Z,92.6
2023-05-01T22:13:59.272Z,91.3
2023-05-01T22:19:52.635Z,92
2023-05-01T22:25:43.731Z,91.5
2023-05-01T22:31:36.966Z,93.5
2023-05-01T22:37:27.691Z,93
2023-05-01T22:43:20.625Z,92.6
2023-05-01T22:49:15.708Z,93
2023-05-01T22:55:05.473Z,92.3
2023-05-01T23:00:57.054Z,92.2
2023-05-01T23:07:57.619Z,92.8
2023-05-01T23:13:47.492Z,95.3
2023-05-01T23:19:38.078Z,96.2
2023-05-01T23:25:32.897Z,94.4
2023-05-01T23:31:21.804Z,97
2023-05-01T23:37:14.894Z,95.1
2023-05-01T23:43:06.274Z,95.7
2023-05-01T23:48:58.290Z,97
2023-05-01T23:54:50.102Z,98.9
